sensor_id;sensor_type;location;lat;lon;timestamp;P1;durP1;ratioP1;P2;durP2;ratioP2
3549;SDS011;45572;48.804;8.330;2023-12-28T03:40:15;1.42;;;1.20;;
3549;SDS011;45572;48.804;8.330;2023-12-28T03:42:46;5.45;;;0.90;;
3549;SDS011;45572;48.804;8.330;2023-12-28T03:45:14;2.63;;;1.05;;
3549;SDS011;45572;48.804;8.330;2023-12-28T03:47:42;2.28;;;0.77;;
3549;SDS011;45572;48.804;8.330;2023-12-28T03:50:10;0.93;;;0.80;;
3549;SDS011;45572;48.804;8.330;2023-12-28T03:52:38;3.47;;;1.15;;
3549;SDS011;45572;48.804;8.330;2023-12-28T03:55:06;2.17;;;0.98;;
3549;SDS011;45572;48.804;8.330;2023-12-28T03:57:36;1.23;;;0.70;;
3549;SDS011;45572;48.804;8.330;2023-12-28T04:00:04;1.50;;;0.88;;
3549;SDS011;45572;48.804;8.330;2023-12-28T04:34:04;2.03;;;0.70;;
3549;SDS011;45572;48.804;8.330;2023-12-28T04:36:32;1.65;;;1.17;;
3549;SDS011;45572;48.804;8.330;2023-12-28T04:39:06;1.10;;;0.85;;
3549;SDS011;45572;48.804;8.330;2023-12-28T04:41:34;1.83;;;0.90;;
3549;SDS011;45572;48.804;8.330;2023-12-28T04:44:02;1.50;;;0.80;;
3549;SDS011;45572;48.804;8.330;2023-12-28T04:46:30;2.08;;;1.00;;
3549;SDS011;45572;48.804;8.330;2023-12-28T04:48:58;1.10;;;0.70;;
3549;SDS011;45572;48.804;8.330;2023-12-28T04:51:28;3.47;;;0.95;;
3549;SDS011;45572;48.804;8.330;2023-12-28T04:53:56;2.15;;;0.95;;
3549;SDS011;45572;48.804;8.330;2023-12-28T04:56:24;1.10;;;0.68;;
3549;SDS011;45572;48.804;8.330;2023-12-28T04:58:52;2.90;;;1.48;;
3549;SDS011;45572;48.804;8.330;2023-12-28T05:01:20;1.42;;;0.90;;
3549;SDS011;45572;48.804;8.330;2023-12-28T05:03:49;3.45;;;0.63;;
3549;SDS011;45572;48.804;8.330;2023-12-28T05:06:20;2.55;;;1.10;;
3549;SDS011;45572;48.804;8.330;2023-12-28T05:08:49;1.90;;;1.20;;
3549;SDS011;45572;48.804;8.330;2023-12-28T05:11:17;2.83;;;1.00;;
3549;SDS011;45572;48.804;8.330;2023-12-28T05:13:45;4.50;;;1.00;;
3549;SDS011;45572;48.804;8.330;2023-12-28T05:16:13;2.47;;;1.05;;
3549;SDS011;45572;48.804;8.330;2023-12-28T05:18:41;3.05;;;1.10;;
3549;SDS011;45572;48.804;8.330;2023-12-28T05:21:09;1.52;;;0.85;;
3549;SDS011;45572;48.804;8.330;2023-12-28T05:23:37;1.45;;;0.82;;
3549;SDS011;45572;48.804;8.330;2023-12-28T05:26:07;3.08;;;0.98;;
3549;SDS011;45572;48.804;8.330;2023-12-28T05:28:35;1.58;;;0.60;;
3549;SDS011;45572;48.804;8.330;2023-12-28T05:31:03;0.70;;;0.63;;
3549;SDS011;45572;48.804;8.330;2023-12-28T05:33:32;1.30;;;0.70;;
3549;SDS011;45572;48.804;8.330;2023-12-28T05:36:00;1.50;;;0.80;;
3549;SDS011;45572;48.804;8.330;2023-12-28T05:38:28;2.33;;;1.30;;
3549;SDS011;45572;48.804;8.330;2023-12-28T05:40:56;1.05;;;0.90;;
3549;SDS011;45572;48.804;8.330;2023-12-28T05:43:25;1.92;;;1.05;;
3549;SDS011;45572;48.804;8.330;2023-12-28T05:45:53;3.47;;;1.33;;
3549;SDS011;45572;48.804;8.330;2023-12-28T05:48:21;1.10;;;0.50;;
3549;SDS011;45572;48.804;8.330;2023-12-28T05:50:49;2.35;;;1.08;;
3549;SDS011;45572;48.804;8.330;2023-12-28T05:53:17;0.88;;;0.60;;
3549;SDS011;45572;48.804;8.330;2023-12-28T05:55:45;1.70;;;0.70;;
3549;SDS011;45572;48.804;8.330;2023-12-28T05:58:13;2.15;;;1.27;;
3549;SDS011;45572;48.804;8.330;2023-12-28T06:00:43;1.23;;;0.70;;
3549;SDS011;45572;48.804;8.330;2023-12-28T06:03:14;2.55;;;1.40;;
3549;SDS011;45572;48.804;8.330;2023-12-28T06:05:43;1.48;;;1.10;;
3549;SDS011;45572;48.804;8.330;2023-12-28T06:08:11;1.30;;;1.13;;
3549;SDS011;45572;48.804;8.330;2023-12-28T06:10:39;1.42;;;0.90;;
3549;SDS011;45572;48.804;8.330;2023-12-28T06:13:07;3.50;;;1.30;;
3549;SDS011;45572;48.804;8.330;2023-12-28T06:15:35;1.67;;;0.80;;
3549;SDS011;45572;48.804;8.330;2023-12-28T06:18:04;1.25;;;0.90;;
3549;SDS011;45572;48.804;8.330;2023-12-28T06:20:32;2.67;;;0.95;;
3549;SDS011;45572;48.804;8.330;2023-12-28T06:23:00;2.45;;;1.17;;
3549;SDS011;45572;48.804;8.330;2023-12-28T06:25:29;2.67;;;0.90;;
3549;SDS011;45572;48.804;8.330;2023-12-28T06:27:57;3.50;;;1.20;;
3549;SDS011;45572;48.804;8.330;2023-12-28T06:30:26;2.03;;;1.23;;
3549;SDS011;45572;48.804;8.330;2023-12-28T06:32:54;5.05;;;2.50;;
3549;SDS011;45572;48.804;8.330;2023-12-28T06:35:23;1.65;;;0.95;;
3549;SDS011;45572;48.804;8.330;2023-12-28T06:37:52;2.42;;;1.45;;
3549;SDS011;45572;48.804;8.330;2023-12-28T06:40:20;2.45;;;1.25;;
3549;SDS011;45572;48.804;8.330;2023-12-28T06:42:48;1.80;;;1.00;;
3549;SDS011;45572;48.804;8.330;2023-12-28T06:45:16;1.50;;;1.15;;
3549;SDS011;45572;48.804;8.330;2023-12-28T06:47:44;4.63;;;1.80;;
3549;SDS011;45572;48.804;8.330;2023-12-28T06:50:12;3.15;;;1.95;;
3549;SDS011;45572;48.804;8.330;2023-12-28T06:52:41;2.72;;;1.10;;
3549;SDS011;45572;48.804;8.330;2023-12-28T06:55:09;4.03;;;1.10;;
3549;SDS011;45572;48.804;8.330;2023-12-28T06:57:37;4.43;;;0.85;;
3549;SDS011;45572;48.804;8.330;2023-12-28T07:00:05;1.10;;;0.75;;
3549;SDS011;45572;48.804;8.330;2023-12-28T07:02:34;5.07;;;1.10;;
3549;SDS011;45572;48.804;8.330;2023-12-28T07:05:02;2.97;;;1.67;;
3549;SDS011;45572;48.804;8.330;2023-12-28T07:07:32;2.40;;;1.00;;
3549;SDS011;45572;48.804;8.330;2023-12-28T07:10:01;1.77;;;1.00;;
3549;SDS011;45572;48.804;8.330;2023-12-28T07:12:31;2.97;;;1.20;;
3549;SDS011;45572;48.804;8.330;2023-12-28T07:14:59;3.42;;;1.08;;
3549;SDS011;45572;48.804;8.330;2023-12-28T07:17:27;2.85;;;1.80;;
3549;SDS011;45572;48.804;8.330;2023-12-28T07:19:55;3.88;;;1.42;;
3549;SDS011;45572;48.804;8.330;2023-12-28T07:22:23;2.35;;;1.52;;
3549;SDS011;45572;48.804;8.330;2023-12-28T07:24:51;3.08;;;1.70;;
3549;SDS011;45572;48.804;8.330;2023-12-28T07:27:20;7.65;;;1.88;;
3549;SDS011;45572;48.804;8.330;2023-12-28T07:29:48;3.70;;;1.65;;
3549;SDS011;45572;48.804;8.330;2023-12-28T07:32:16;2.38;;;1.70;;
3549;SDS011;45572;48.804;8.330;2023-12-28T07:34:46;2.38;;;1.60;;
3549;SDS011;45572;48.804;8.330;2023-12-28T07:37:14;2.97;;;1.55;;
3549;SDS011;45572;48.804;8.330;2023-12-28T07:39:42;9.07;;;4.90;;
3549;SDS011;45572;48.804;8.330;2023-12-28T07:42:10;5.07;;;2.92;;
3549;SDS011;45572;48.804;8.330;2023-12-28T07:44:39;4.22;;;2.28;;
3549;SDS011;45572;48.804;8.330;2023-12-28T07:47:07;3.08;;;1.98;;
3549;SDS011;45572;48.804;8.330;2023-12-28T07:49:35;3.45;;;1.40;;
3549;SDS011;45572;48.804;8.330;2023-12-28T07:52:04;3.30;;;1.83;;
3549;SDS011;45572;48.804;8.330;2023-12-28T07:54:32;10.25;;;2.28;;
3549;SDS011;45572;48.804;8.330;2023-12-28T07:57:01;3.25;;;1.70;;
3549;SDS011;45572;48.804;8.330;2023-12-28T07:59:29;3.83;;;2.45;;
3549;SDS011;45572;48.804;8.330;2023-12-28T08:01:59;6.38;;;2.60;;
3549;SDS011;45572;48.804;8.330;2023-12-28T08:04:27;3.92;;;2.00;;
3549;SDS011;45572;48.804;8.330;2023-12-28T08:06:55;2.40;;;1.80;;
3549;SDS011;45572;48.804;8.330;2023-12-28T08:09:23;1.77;;;1.50;;
3549;SDS011;45572;48.804;8.330;2023-12-28T08:11:52;3.10;;;1.83;;
3549;SDS011;45572;48.804;8.330;2023-12-28T08:14:20;1.75;;;1.42;;
3549;SDS011;45572;48.804;8.330;2023-12-28T08:16:48;4.18;;;1.40;;
3549;SDS011;45572;48.804;8.330;2023-12-28T08:19:21;2.60;;;1.70;;
3549;SDS011;45572;48.804;8.330;2023-12-28T08:21:50;3.72;;;1.85;;
3549;SDS011;45572;48.804;8.330;2023-12-28T08:24:18;3.22;;;2.00;;
3549;SDS011;45572;48.804;8.330;2023-12-28T08:26:47;3.85;;;1.77;;
3549;SDS011;45572;48.804;8.330;2023-12-28T08:29:15;1.70;;;1.40;;
3549;SDS011;45572;48.804;8.330;2023-12-28T08:31:46;2.60;;;1.58;;
3549;SDS011;45572;48.804;8.330;2023-12-28T08:34:15;2.20;;;1.52;;
3549;SDS011;45572;48.804;8.330;2023-12-28T08:36:45;2.45;;;1.85;;
3549;SDS011;45572;48.804;8.330;2023-12-28T08:39:13;3.53;;;2.05;;
3549;SDS011;45572;48.804;8.330;2023-12-28T08:41:42;2.10;;;1.90;;
3549;SDS011;45572;48.804;8.330;2023-12-28T08:44:14;4.18;;;1.88;;
3549;SDS011;45572;48.804;8.330;2023-12-28T08:46:43;4.53;;;2.40;;
3549;SDS011;45572;48.804;8.330;2023-12-28T08:49:12;3.25;;;2.50;;
3549;SDS011;45572;48.804;8.330;2023-12-28T08:51:42;3.92;;;2.53;;
3549;SDS011;45572;48.804;8.330;2023-12-28T08:54:12;2.08;;;1.60;;
3549;SDS011;45572;48.804;8.330;2023-12-28T08:56:43;3.40;;;2.08;;
3549;SDS011;45572;48.804;8.330;2023-12-28T08:59:16;2.17;;;1.73;;
3549;SDS011;45572;48.804;8.330;2023-12-28T09:01:45;3.90;;;2.58;;
3549;SDS011;45572;48.804;8.330;2023-12-28T09:04:13;3.67;;;2.00;;
3549;SDS011;45572;48.804;8.330;2023-12-28T09:06:46;4.15;;;2.45;;
3549;SDS011;45572;48.804;8.330;2023-12-28T09:09:15;4.75;;;3.08;;
3549;SDS011;45572;48.804;8.330;2023-12-28T09:11:43;6.00;;;3.53;;
3549;SDS011;45572;48.804;8.330;2023-12-28T09:14:12;4.43;;;2.85;;
3549;SDS011;45572;48.804;8.330;2023-12-28T09:16:41;4.05;;;2.90;;
3549;SDS011;45572;48.804;8.330;2023-12-28T09:19:10;6.95;;;3.50;;
3549;SDS011;45572;48.804;8.330;2023-12-28T09:21:39;7.35;;;3.17;;
3549;SDS011;45572;48.804;8.330;2023-12-28T09:24:08;6.53;;;2.85;;
3549;SDS011;45572;48.804;8.330;2023-12-28T09:26:37;3.50;;;2.80;;
3549;SDS011;45572;48.804;8.330;2023-12-28T09:29:05;2.80;;;2.22;;
3549;SDS011;45572;48.804;8.330;2023-12-28T09:31:33;4.45;;;2.47;;
3549;SDS011;45572;48.804;8.330;2023-12-28T09:34:02;3.45;;;1.73;;
3549;SDS011;45572;48.804;8.330;2023-12-28T09:36:31;2.55;;;1.67;;
3549;SDS011;45572;48.804;8.330;2023-12-28T09:39:06;2.08;;;1.60;;
3549;SDS011;45572;48.804;8.330;2023-12-28T09:41:41;2.40;;;2.10;;
3549;SDS011;45572;48.804;8.330;2023-12-28T09:44:13;4.15;;;1.88;;
3549;SDS011;45572;48.804;8.330;2023-12-28T09:46:46;5.03;;;2.40;;
3549;SDS011;45572;48.804;8.330;2023-12-28T09:49:30;4.13;;;2.20;;
3549;SDS011;45572;48.804;8.330;2023-12-28T09:52:32;4.28;;;2.60;;
3549;SDS011;45572;48.804;8.330;2023-12-28T09:55:48;5.30;;;2.50;;
3549;SDS011;45572;48.804;8.330;2023-12-28T09:58:20;3.20;;;2.38;;
3549;SDS011;45572;48.804;8.330;2023-12-28T10:00:54;5.15;;;2.08;;
3549;SDS011;45572;48.804;8.330;2023-12-28T10:03:28;7.60;;;2.40;;
3549;SDS011;45572;48.804;8.330;2023-12-28T10:06:01;2.70;;;1.70;;
3549;SDS011;45572;48.804;8.330;2023-12-28T10:08:56;5.22;;;2.80;;
3549;SDS011;45572;48.804;8.330;2023-12-28T10:11:38;4.53;;;1.98;;
3549;SDS011;45572;48.804;8.330;2023-12-28T10:14:32;4.95;;;1.98;;
3549;SDS011;45572;48.804;8.330;2023-12-28T10:17:06;3.40;;;2.17;;
3549;SDS011;45572;48.804;8.330;2023-12-28T20:15:41;1.98;;;1.33;;
3549;SDS011;45572;48.804;8.330;2023-12-28T20:18:11;2.20;;;1.20;;
3549;SDS011;45572;48.804;8.330;2023-12-28T20:20:40;1.52;;;1.00;;
3549;SDS011;45572;48.804;8.330;2023-12-28T20:23:09;1.45;;;0.90;;
3549;SDS011;45572;48.804;8.330;2023-12-28T20:25:40;2.03;;;1.10;;
3549;SDS011;45572;48.804;8.330;2023-12-28T20:28:12;1.45;;;0.80;;
3549;SDS011;45572;48.804;8.330;2023-12-28T20:30:47;2.50;;;1.02;;
3549;SDS011;45572;48.804;8.330;2023-12-28T20:33:18;3.75;;;1.00;;
3549;SDS011;45572;48.804;8.330;2023-12-28T20:35:47;1.40;;;0.98;;
3549;SDS011;45572;48.804;8.330;2023-12-28T20:38:15;1.45;;;0.77;;
3549;SDS011;45572;48.804;8.330;2023-12-28T20:40:43;3.50;;;0.90;;
3549;SDS011;45572;48.804;8.330;2023-12-28T20:43:14;4.72;;;1.15;;
3549;SDS011;45572;48.804;8.330;2023-12-28T20:45:43;1.30;;;0.85;;
3549;SDS011;45572;48.804;8.330;2023-12-28T20:48:13;2.63;;;1.20;;
3549;SDS011;45572;48.804;8.330;2023-12-28T20:50:44;1.20;;;0.80;;
3549;SDS011;45572;48.804;8.330;2023-12-28T20:53:20;2.58;;;0.82;;
3549;SDS011;45572;48.804;8.330;2023-12-28T20:55:48;2.05;;;0.80;;
3549;SDS011;45572;48.804;8.330;2023-12-28T20:58:26;3.08;;;0.95;;
3549;SDS011;45572;48.804;8.330;2023-12-28T21:00:54;1.67;;;0.85;;
3549;SDS011;45572;48.804;8.330;2023-12-28T21:03:24;1.92;;;1.05;;
3549;SDS011;45572;48.804;8.330;2023-12-28T21:05:57;3.45;;;1.95;;
3549;SDS011;45572;48.804;8.330;2023-12-28T21:08:26;1.35;;;1.25;;
3549;SDS011;45572;48.804;8.330;2023-12-28T21:10:57;1.40;;;0.95;;
3549;SDS011;45572;48.804;8.330;2023-12-28T21:13:26;1.50;;;0.90;;
3549;SDS011;45572;48.804;8.330;2023-12-28T21:15:59;1.27;;;0.77;;
3549;SDS011;45572;48.804;8.330;2023-12-28T21:18:29;2.70;;;0.77;;
3549;SDS011;45572;48.804;8.330;2023-12-28T21:20:58;2.13;;;1.15;;
3549;SDS011;45572;48.804;8.330;2023-12-28T21:23:39;1.73;;;1.05;;
3549;SDS011;45572;48.804;8.330;2023-12-28T21:26:07;1.40;;;1.02;;
3549;SDS011;45572;48.804;8.330;2023-12-28T21:28:35;3.88;;;1.27;;
3549;SDS011;45572;48.804;8.330;2023-12-28T21:31:09;1.30;;;0.90;;
3549;SDS011;45572;48.804;8.330;2023-12-28T21:33:39;2.00;;;1.25;;
3549;SDS011;45572;48.804;8.330;2023-12-28T21:36:09;1.60;;;1.00;;
3549;SDS011;45572;48.804;8.330;2023-12-28T21:38:42;1.23;;;0.98;;
3549;SDS011;45572;48.804;8.330;2023-12-28T21:41:10;1.20;;;0.90;;
3549;SDS011;45572;48.804;8.330;2023-12-28T21:43:38;0.85;;;0.63;;
3549;SDS011;45572;48.804;8.330;2023-12-28T21:46:12;4.30;;;1.00;;
3549;SDS011;45572;48.804;8.330;2023-12-28T21:48:42;4.60;;;1.17;;
3549;SDS011;45572;48.804;8.330;2023-12-28T21:51:11;1.38;;;0.98;;
3549;SDS011;45572;48.804;8.330;2023-12-28T21:53:43;1.90;;;1.10;;
3549;SDS011;45572;48.804;8.330;2023-12-28T21:56:15;1.55;;;0.95;;
3549;SDS011;45572;48.804;8.330;2023-12-28T21:58:50;1.40;;;1.30;;
3549;SDS011;45572;48.804;8.330;2023-12-28T22:01:18;3.05;;;1.70;;
3549;SDS011;45572;48.804;8.330;2023-12-28T22:03:49;3.17;;;2.42;;
3549;SDS011;45572;48.804;8.330;2023-12-28T22:06:18;1.65;;;1.10;;
3549;SDS011;45572;48.804;8.330;2023-12-28T22:08:56;11.48;;;2.33;;
3549;SDS011;45572;48.804;8.330;2023-12-28T22:11:35;2.08;;;1.10;;
3549;SDS011;45572;48.804;8.330;2023-12-28T22:14:03;1.30;;;1.02;;
3549;SDS011;45572;48.804;8.330;2023-12-28T22:16:38;1.50;;;1.30;;
3549;SDS011;45572;48.804;8.330;2023-12-28T22:19:07;1.73;;;1.20;;
3549;SDS011;45572;48.804;8.330;2023-12-28T22:21:35;2.50;;;1.45;;
3549;SDS011;45572;48.804;8.330;2023-12-28T22:24:05;2.08;;;1.23;;
3549;SDS011;45572;48.804;8.330;2023-12-28T22:26:33;1.60;;;1.00;;
3549;SDS011;45572;48.804;8.330;2023-12-28T22:29:03;3.08;;;1.60;;
3549;SDS011;45572;48.804;8.330;2023-12-28T22:31:38;1.85;;;1.50;;
3549;SDS011;45572;48.804;8.330;2023-12-28T22:34:12;4.05;;;1.40;;
3549;SDS011;45572;48.804;8.330;2023-12-28T22:36:40;1.63;;;1.02;;
3549;SDS011;45572;48.804;8.330;2023-12-28T22:39:11;2.40;;;1.83;;
3549;SDS011;45572;48.804;8.330;2023-12-28T22:41:39;1.92;;;1.17;;
3549;SDS011;45572;48.804;8.330;2023-12-28T22:44:08;2.00;;;1.58;;
3549;SDS011;45572;48.804;8.330;2023-12-28T22:46:53;1.95;;;1.02;;
3549;SDS011;45572;48.804;8.330;2023-12-28T22:49:22;1.75;;;1.17;;
3549;SDS011;45572;48.804;8.330;2023-12-28T22:51:50;5.50;;;2.47;;
3549;SDS011;45572;48.804;8.330;2023-12-28T22:54:19;4.32;;;1.40;;
3549;SDS011;45572;48.804;8.330;2023-12-28T22:56:47;1.65;;;1.27;;
3549;SDS011;45572;48.804;8.330;2023-12-28T22:59:18;2.35;;;1.77;;
3549;SDS011;45572;48.804;8.330;2023-12-28T23:01:46;3.42;;;2.05;;
3549;SDS011;45572;48.804;8.330;2023-12-28T23:04:15;3.35;;;1.65;;
3549;SDS011;45572;48.804;8.330;2023-12-28T23:06:44;2.65;;;1.80;;
3549;SDS011;45572;48.804;8.330;2023-12-28T23:09:12;2.63;;;1.45;;
3549;SDS011;45572;48.804;8.330;2023-12-28T23:11:41;3.00;;;2.22;;
3549;SDS011;45572;48.804;8.330;2023-12-28T23:14:09;2.88;;;1.75;;
3549;SDS011;45572;48.804;8.330;2023-12-28T23:16:37;2.92;;;1.60;;
3549;SDS011;45572;48.804;8.330;2023-12-28T23:19:05;2.72;;;2.25;;
3549;SDS011;45572;48.804;8.330;2023-12-28T23:21:35;1.92;;;1.65;;
3549;SDS011;45572;48.804;8.330;2023-12-28T23:24:05;5.63;;;1.98;;
3549;SDS011;45572;48.804;8.330;2023-12-28T23:26:34;4.30;;;1.98;;
3549;SDS011;45572;48.804;8.330;2023-12-28T23:29:04;3.38;;;1.85;;
3549;SDS011;45572;48.804;8.330;2023-12-28T23:31:32;6.88;;;1.80;;
3549;SDS011;45572;48.804;8.330;2023-12-28T23:34:00;2.88;;;1.73;;
3549;SDS011;45572;48.804;8.330;2023-12-28T23:36:37;8.85;;;2.60;;
3549;SDS011;45572;48.804;8.330;2023-12-28T23:39:07;3.35;;;2.15;;
3549;SDS011;45572;48.804;8.330;2023-12-28T23:41:35;2.50;;;1.83;;
3549;SDS011;45572;48.804;8.330;2023-12-28T23:44:05;2.33;;;1.67;;
3549;SDS011;45572;48.804;8.330;2023-12-28T23:46:35;1.98;;;1.50;;
3549;SDS011;45572;48.804;8.330;2023-12-28T23:49:04;4.65;;;2.35;;
3549;SDS011;45572;48.804;8.330;2023-12-28T23:51:33;4.53;;;2.22;;
3549;SDS011;45572;48.804;8.330;2023-12-28T23:54:01;4.65;;;2.22;;
3549;SDS011;45572;48.804;8.330;2023-12-28T23:56:30;4.22;;;2.47;;
3549;SDS011;45572;48.804;8.330;2023-12-28T23:58:58;3.33;;;1.98;;
